Time,TemperatureF,DewpointF,PressureIn,WindDirection,WindDirectionDegrees,WindSpeedMPH,WindSpeedGustMPH,Humidity,HourlyPrecipIn,Conditions,Clouds,dailyrainin,SoftwareType,DateUTC
2013-03-11 00:10:00,58.5,51.0,29.68,SSE,162,0.0,-999.0,75,-99.99,,,0.00,weatherlink.com 1.10,2013-03-10 22:10:00,
2013-03-11 00:25:00,58.3,51.0,29.68,SSE,162,0.0,-999.0,76,-99.99,,,0.00,weatherlink.com 1.10,2013-03-10 22:25:00,
2013-03-11 00:40:00,58.1,51.0,29.68,SSE,162,0.0,-999.0,76,-99.99,,,0.00,weatherlink.com 1.10,2013-03-10 22:40:00,
2013-03-11 00:55:00,57.9,51.0,29.68,SSE,162,0.0,-999.0,77,-99.99,,,0.00,weatherlink.com 1.10,2013-03-10 22:55:00,
2013-03-11 01:10:00,57.7,51.0,29.67,SSE,162,0.0,-999.0,77,-99.99,,,0.00,weatherlink.com 1.10,2013-03-10 23:10:00,
2013-03-11 01:25:00,57.5,51.0,29.67,SSE,162,0.0,-999.0,78,-99.99,,,0.00,weatherlink.com 1.10,2013-03-10 23:25:00,
2013-03-11 01:40:00,57.2,50.0,29.67,SSE,162,0.0,-999.0,78,-99.99,,,0.00,weatherlink.com 1.10,2013-03-10 23:40:00,
2013-03-11 01:55:00,57.0,51.0,29.66,SSE,162,1.0,-999.0,79,-99.99,,,0.00,weatherlink.com 1.10,2013-03-10 23:55:00,
2013-03-11 02:10:00,56.8,51.0,29.65,SSE,162,0.0,-999.0,80,-99.99,,,0.00,weatherlink.com 1.10,2013-03-11 00:10:00,
2013-03-11 02:25:00,56.6,51.0,29.65,SSE,162,0.0,-999.0,80,-99.99,,,0.00,weatherlink.com 1.10,2013-03-11 00:25:00,
2013-03-11 02:40:00,56.6,51.0,29.65,SSE,162,0.0,-999.0,80,-99.99,,,0.00,weatherlink.com 1.10,2013-03-11 00:40:00,
2013-03-11 02:55:00,56.6,51.0,29.64,SSE,162,0.0,-999.0,80,-99.99,,,0.00,weatherlink.com 1.10,2013-03-11 00:55:00,
2013-03-11 03:10:00,56.4,50.0,29.63,SSE,162,0.0,-999.0,80,-99.99,,,0.00,weatherlink.com 1.10,2013-03-11 01:10:00,
2013-03-11 03:25:00,56.4,51.0,29.63,SSE,162,0.0,-999.0,81,-99.99,,,0.00,weatherlink.com 1.10,2013-03-11 01:25:00,
2013-03-11 03:40:00,56.4,51.0,29.61,SSE,162,0.0,-999.0,81,-99.99,,,0.00,weatherlink.com 1.10,2013-03-11 01:40:00,
2013-03-11 03:55:00,56.3,51.0,29.61,SSE,162,1.0,-999.0,82,-99.99,,,0.00,weatherlink.com 1.10,2013-03-11 01:55:00,
2013-03-11 04:11:00,56.2,51.0,29.61,SSE,162,2.0,-999.0,83,-99.99,,,0.00,weatherlink.com 1.10,2013-03-11 02:11:00,
2013-03-11 04:26:00,56.2,52.0,29.61,SE,137,0.0,-999.0,84,-99.99,,,0.00,weatherlink.com 1.10,2013-03-11 02:26:00,
2013-03-11 04:41:00,55.9,51.0,29.61,SE,137,0.0,-999.0,84,-99.99,,,0.00,weatherlink.com 1.10,2013-03-11 02:41:00,
2013-03-11 04:56:00,55.7,51.0,29.60,SE,137,0.0,-999.0,84,-99.99,,,0.00,weatherlink.com 1.10,2013-03-11 02:56:00,
2013-03-11 05:11:00,55.4,51.0,29.59,SE,137,0.0,-999.0,84,-99.99,,,0.00,weatherlink.com 1.10,2013-03-11 03:11:00,
2013-03-11 05:26:00,55.3,51.0,29.58,SE,137,0.0,-999.0,84,-99.99,,,0.00,weatherlink.com 1.10,2013-03-11 03:26:00,
2013-03-11 05:41:00,55.1,50.0,29.58,SE,137,0.0,-999.0,84,-99.99,,,0.00,weatherlink.com 1.10,2013-03-11 03:41:00,
2013-03-11 05:56:00,55.2,51.0,29.58,SE,137,0.0,-999.0,84,-99.99,,,0.00,weatherlink.com 1.10,2013-03-11 03:56:00,
2013-03-11 06:11:00,55.4,51.0,29.57,East,89,1.0,-999.0,84,-99.99,,,0.00,weatherlink.com 1.10,2013-03-11 04:11:00,
2013-03-11 06:41:00,55.3,51.0,29.58,East,87,0.0,-999.0,84,-99.99,,,0.00,weatherlink.com 1.10,2013-03-11 04:41:00,
2013-03-11 06:56:00,55.3,51.0,29.58,East,87,1.0,-999.0,84,-99.99,,,0.00,weatherlink.com 1.10,2013-03-11 04:56:00,
2013-03-11 07:11:00,55.4,51.0,29.58,East,87,0.0,-999.0,84,-99.99,,,0.00,weatherlink.com 1.10,2013-03-11 05:11:00,
2013-03-11 07:41:00,56.2,51.0,29.59,East,87,0.0,-999.0,83,-99.99,,,0.00,weatherlink.com 1.10,2013-03-11 05:41:00,
2013-03-11 07:56:00,56.8,51.0,29.60,East,86,0.0,-999.0,82,-99.99,,,0.00,weatherlink.com 1.10,2013-03-11 05:56:00,
2013-03-11 08:26:00,58.7,53.0,29.60,East,86,2.0,-999.0,81,-99.99,,,0.00,weatherlink.com 1.10,2013-03-11 06:26:00,
2013-03-11 08:41:00,60.2,53.0,29.60,East,86,0.0,-999.0,77,-99.99,,,0.00,weatherlink.com 1.10,2013-03-11 06:41:00,
2013-03-11 08:56:00,61.3,54.0,29.60,East,86,0.0,-999.0,76,-99.99,,,0.00,weatherlink.com 1.10,2013-03-11 06:56:00,
2013-03-11 09:11:00,61.9,54.0,29.60,East,86,0.0,-999.0,75,-99.99,,,0.00,weatherlink.com 1.10,2013-03-11 07:11:00,
2013-03-11 09:26:00,62.0,54.0,29.60,East,86,1.0,-999.0,74,-99.99,,,0.00,weatherlink.com 1.10,2013-03-11 07:26:00,
2013-03-11 09:41:00,62.4,54.0,29.59,East,86,0.0,-999.0,75,-99.99,,,0.00,weatherlink.com 1.10,2013-03-11 07:41:00,
2013-03-11 09:56:00,62.7,55.0,29.59,East,96,0.0,-999.0,75,-99.99,,,0.00,weatherlink.com 1.10,2013-03-11 07:56:00,
2013-03-11 10:11:00,62.9,55.0,29.58,SSE,165,2.0,-999.0,74,-99.99,,,0.00,weatherlink.com 1.10,2013-03-11 08:11:00,
2013-03-11 10:26:00,63.5,54.0,29.59,SSW,200,7.0,-999.0,72,-99.99,,,0.00,weatherlink.com 1.10,2013-03-11 08:26:00,
2013-03-11 10:41:00,63.3,55.0,29.59,SSE,147,7.0,-999.0,74,-99.99,,,0.00,weatherlink.com 1.10,2013-03-11 08:41:00,
2013-03-11 10:56:00,63.4,55.0,29.59,South,187,6.0,-999.0,74,-99.99,,,0.00,weatherlink.com 1.10,2013-03-11 08:56:00,
2013-03-11 11:11:00,62.6,55.0,29.59,SSW,202,6.0,-999.0,75,-99.99,,,0.00,weatherlink.com 1.10,2013-03-11 09:11:00,
2013-03-11 11:26:00,63.2,55.0,29.59,SW,219,8.0,-999.0,75,-99.99,,,0.00,weatherlink.com 1.10,2013-03-11 09:26:00,
2013-03-11 11:41:00,63.2,56.0,29.59,SE,126,10.0,-999.0,76,-99.99,,,0.00,weatherlink.com 1.10,2013-03-11 09:41:00,
2013-03-11 11:56:00,64.1,56.0,29.59,South,189,10.0,-999.0,74,-99.99,,,0.00,weatherlink.com 1.10,2013-03-11 09:56:00,
2013-03-11 12:11:00,64.3,56.0,29.60,South,178,6.0,-999.0,74,-99.99,,,0.00,weatherlink.com 1.10,2013-03-11 10:11:00,
2013-03-11 12:26:00,64.3,56.0,29.59,South,171,9.0,-999.0,75,-99.99,,,0.00,weatherlink.com 1.10,2013-03-11 10:26:00,
2013-03-11 12:41:00,64.5,56.0,29.58,SW,216,6.0,-999.0,73,-99.99,,,0.00,weatherlink.com 1.10,2013-03-11 10:41:00,
2013-03-11 12:56:00,64.8,55.0,29.58,SSW,196,3.0,-999.0,71,-99.99,,,0.00,weatherlink.com 1.10,2013-03-11 10:56:00,
2013-03-11 13:11:00,65.4,55.0,29.57,SSW,208,3.0,-999.0,68,-99.99,,,0.00,weatherlink.com 1.10,2013-03-11 11:11:00,
2013-03-11 13:26:00,65.2,54.0,29.57,SSE,165,0.0,-999.0,67,-99.99,,,0.00,weatherlink.com 1.10,2013-03-11 11:26:00,
2013-03-11 13:41:00,65.6,53.0,29.57,South,191,6.0,-999.0,65,-99.99,,,0.00,weatherlink.com 1.10,2013-03-11 11:41:00,
2013-03-11 14:11:00,66.3,53.0,29.56,South,171,2.0,-999.0,63,-99.99,,,0.00,weatherlink.com 1.10,2013-03-11 12:11:00,
2013-03-11 14:27:00,66.2,53.0,29.55,South,185,4.0,-999.0,63,-99.99,,,0.00,weatherlink.com 1.10,2013-03-11 12:27:00,
2013-03-11 14:41:00,66.8,53.0,29.55,SSE,159,0.0,-999.0,62,-99.99,,,0.00,weatherlink.com 1.10,2013-03-11 12:41:00,
2013-03-11 15:11:00,67.3,53.0,29.55,South,176,5.0,-999.0,61,-99.99,,,0.00,weatherlink.com 1.10,2013-03-11 13:11:00,
2013-03-11 15:27:00,66.9,53.0,29.55,SE,133,6.0,-999.0,61,-99.99,,,0.00,weatherlink.com 1.10,2013-03-11 13:27:00,
2013-03-11 15:42:00,66.6,53.0,29.55,South,191,8.0,-999.0,63,-99.99,,,0.00,weatherlink.com 1.10,2013-03-11 13:42:00,
2013-03-11 15:57:00,66.2,54.0,29.55,South,180,2.0,-999.0,64,-99.99,,,0.00,weatherlink.com 1.10,2013-03-11 13:57:00,
2013-03-11 16:12:00,66.1,53.0,29.55,South,190,5.0,-999.0,63,-99.99,,,0.00,weatherlink.com 1.10,2013-03-11 14:12:00,
2013-03-11 16:27:00,66.1,53.0,29.56,SSW,198,7.0,-999.0,64,-99.99,,,0.00,weatherlink.com 1.10,2013-03-11 14:27:00,
2013-03-11 16:42:00,65.6,54.0,29.55,South,189,6.0,-999.0,66,-99.99,,,0.00,weatherlink.com 1.10,2013-03-11 14:42:00,
2013-03-11 16:57:00,65.6,53.0,29.55,South,183,2.0,-999.0,64,-99.99,,,0.00,weatherlink.com 1.10,2013-03-11 14:57:00,
2013-03-11 17:27:00,65.1,55.0,29.55,SSW,200,6.0,-999.0,70,-99.99,,,0.00,weatherlink.com 1.10,2013-03-11 15:27:00,
2013-03-11 17:42:00,64.5,56.0,29.57,SSE,160,5.0,-999.0,75,-99.99,,,0.00,weatherlink.com 1.10,2013-03-11 15:42:00,
2013-03-11 17:57:00,64.3,55.0,29.56,SE,146,14.0,-999.0,72,-99.99,,,0.00,weatherlink.com 1.10,2013-03-11 15:57:00,
2013-03-11 18:27:00,64.0,54.0,29.58,South,176,0.0,-999.0,69,-99.99,,,0.00,weatherlink.com 1.10,2013-03-11 16:27:00,
2013-03-11 18:57:00,63.2,53.0,29.58,SE,134,1.0,-999.0,69,-99.99,,,0.00,weatherlink.com 1.10,2013-03-11 16:57:00,
2013-03-11 19:12:00,63.4,52.0,29.58,SE,138,5.0,-999.0,67,-99.99,,,0.00,weatherlink.com 1.10,2013-03-11 17:12:00,
2013-03-11 19:27:00,63.8,50.0,29.59,South,170,2.0,-999.0,62,-99.99,,,0.00,weatherlink.com 1.10,2013-03-11 17:27:00,
2013-03-11 19:42:00,64.0,50.0,29.59,South,186,1.0,-999.0,61,-99.99,,,0.00,weatherlink.com 1.10,2013-03-11 17:42:00,
2013-03-11 19:57:00,64.0,49.0,29.59,SW,224,2.0,-999.0,59,-99.99,,,0.00,weatherlink.com 1.10,2013-03-11 17:57:00,
2013-03-11 20:12:00,64.0,49.0,29.60,West,275,5.0,-999.0,58,-99.99,,,0.00,weatherlink.com 1.10,2013-03-11 18:12:00,
2013-03-11 20:27:00,63.9,49.0,29.61,West,277,11.0,-999.0,58,-99.99,,,0.00,weatherlink.com 1.10,2013-03-11 18:27:00,
2013-03-11 20:42:00,63.6,49.0,29.61,SW,219,2.0,-999.0,59,-99.99,,,0.00,weatherlink.com 1.10,2013-03-11 18:42:00,
2013-03-11 20:57:00,63.0,49.0,29.61,SSW,213,9.0,-999.0,61,-99.99,,,0.00,weatherlink.com 1.10,2013-03-11 18:57:00,
2013-03-11 21:12:00,63.0,47.0,29.61,SW,225,4.0,-999.0,57,-99.99,,,0.00,weatherlink.com 1.10,2013-03-11 19:12:00,
2013-03-11 21:27:00,62.7,45.0,29.61,SSW,202,9.0,-999.0,53,-99.99,,,0.00,weatherlink.com 1.10,2013-03-11 19:27:00,
2013-03-11 21:42:00,62.3,46.0,29.61,WSW,250,10.0,-999.0,55,-99.99,,,0.00,weatherlink.com 1.10,2013-03-11 19:42:00,
2013-03-11 21:57:00,61.6,46.0,29.61,WSW,246,7.0,-999.0,58,-99.99,,,0.00,weatherlink.com 1.10,2013-03-11 19:57:00,
2013-03-11 22:12:00,61.3,47.0,29.61,West,267,9.0,-999.0,59,-99.99,,,0.00,weatherlink.com 1.10,2013-03-11 20:12:00,
2013-03-11 22:27:00,60.9,47.0,29.62,West,280,4.0,-999.0,60,-99.99,,,0.00,weatherlink.com 1.10,2013-03-11 20:27:00,
2013-03-11 22:42:00,61.0,47.0,29.62,West,276,0.0,-999.0,60,-99.99,,,0.00,weatherlink.com 1.10,2013-03-11 20:42:00,
2013-03-11 22:57:00,60.8,47.0,29.62,SSW,196,0.0,-999.0,60,-99.99,,,0.00,weatherlink.com 1.10,2013-03-11 20:57:00,
2013-03-11 23:12:00,60.5,47.0,29.63,SSW,196,0.0,-999.0,61,-99.99,,,0.00,weatherlink.com 1.10,2013-03-11 21:12:00,
2013-03-11 23:27:00,60.2,47.0,29.62,WSW,240,0.0,-999.0,61,-99.99,,,0.00,weatherlink.com 1.10,2013-03-11 21:27:00,
2013-03-11 23:42:00,60.2,47.0,29.62,WNW,300,0.0,-999.0,61,-99.99,,,0.00,weatherlink.com 1.10,2013-03-11 21:42:00,
2013-03-11 23:57:00,59.9,47.0,29.62,North,355,0.0,-999.0,62,-99.99,,,0.00,weatherlink.com 1.10,2013-03-11 21:57:00,